createdAt,value
2023-05-14T00:10:22.696Z,280
2023-05-14T00:30:22.585Z,283
2023-05-14T00:50:22.706Z,284
2023-05-14T01:10:22.688Z,282
2023-05-14T01:30:22.778Z,279
2023-05-14T01:50:22.743Z,286
2023-05-14T02:10:22.809Z,284
2023-05-14T02:30:22.884Z,283
2023-05-14T02:50:22.837Z,283
2023-05-14T03:10:22.817Z,283
2023-05-14T03:30:22.985Z,278
2023-05-14T03:50:22.849Z,282
2023-05-14T04:10:22.892Z,282
2023-05-14T04:30:23.111Z,281
2023-05-14T04:50:22.924Z,277
2023-05-14T05:10:23.089Z,286
2023-05-14T05:30:23.110Z,284
2023-05-14T05:50:23.077Z,284
2023-05-14T06:10:23.055Z,284
2023-05-14T06:30:23.188Z,283
2023-05-14T06:50:23.082Z,291
2023-05-14T07:10:23.260Z,283
2023-05-14T07:50:23.226Z,295
2023-05-14T08:10:23.395Z,288
2023-05-14T08:30:23.455Z,283
2023-05-14T08:50:23.709Z,284
2023-05-14T09:10:23.300Z,280
2023-05-14T10:10:23.515Z,276
2023-05-14T10:30:23.408Z,274
2023-05-14T10:50:23.326Z,274
2023-05-14T11:10:23.367Z,269
2023-05-14T11:30:23.315Z,274
2023-05-14T11:50:23.469Z,268
2023-05-14T12:50:23.347Z,263
2023-05-14T13:10:23.270Z,259
2023-05-14T13:30:23.304Z,259
2023-05-14T14:10:23.323Z,259
2023-05-14T14:30:23.330Z,258
2023-05-14T14:50:23.348Z,255
2023-05-14T15:30:23.384Z,253
2023-05-14T15:50:23.589Z,260
2023-05-14T16:10:23.620Z,256
2023-05-14T16:30:23.638Z,254
2023-05-14T16:50:23.386Z,260
2023-05-14T17:10:23.420Z,261
2023-05-14T17:30:23.439Z,256
2023-05-14T17:50:23.418Z,259
2023-05-14T18:30:23.499Z,251
2023-05-14T19:10:23.497Z,260
2023-05-14T19:30:23.518Z,259
2023-05-14T19:50:23.512Z,263
2023-05-14T20:10:23.795Z,261
2023-05-14T20:30:23.736Z,261
2023-05-14T20:50:23.731Z,261
2023-05-14T21:10:23.853Z,260
2023-05-14T21:30:23.608Z,263
2023-05-14T21:50:23.694Z,263
2023-05-14T22:10:23.657Z,265
2023-05-14T22:30:23.695Z,262
2023-05-14T22:50:23.708Z,263
2023-05-14T23:10:23.731Z,265
2023-05-14T23:30:23.735Z,264
2023-05-14T23:50:23.755Z,267
